Time;durP1;ratioP1;P1;durP2;ratioP2;P2;SDS_P1;SDS_P2;PMS_P1;PMS_P2;Temp;Humidity;BMP_temperature;BMP_pressure;BME280_temperature;BME280_humidity;BME280_pressure;Samples;Min_cycle;Max_cycle;Signal;HPM_P1;HPM_P2
2021/05/01 00:00:07;;;;;;;19.80;16.40;;;;;;;7.77;73.54;99587.22;2210268;40;20167;-78
2021/05/01 00:01:39;;;;;;;20.23;18.05;;;;;;;7.79;73.58;99581.72;2199237;40;20030;-78
2021/05/01 00:03:10;;;;;;;21.17;17.08;;;;;;;7.79;73.59;99595.88;2210155;40;20034;-78
2021/05/01 00:04:41;;;;;;;19.77;17.15;;;;;;;7.79;73.71;99590.53;2178252;40;20041;-78
2021/05/01 00:06:13;;;;;;;18.20;14.95;;;;;;;7.82;73.63;99594.78;2210014;40;20736;-78
2021/05/01 00:07:44;;;;;;;18.92;14.20;;;;;;;7.88;73.26;99588.06;2189951;40;20044;-78
2021/05/01 00:09:16;;;;;;;16.85;12.68;;;;;;;7.91;73.36;99591.28;2201718;40;20038;-77
2021/05/01 00:10:47;;;;;;;20.33;14.80;;;;;;;7.96;73.00;99578.38;2208115;40;20486;-77
2021/05/01 00:12:19;;;;;;;15.98;12.73;;;;;;;8.00;72.79;99567.47;2209614;40;20020;-77
2021/05/01 00:13:55;;;;;;;16.98;12.75;;;;;;;8.03;72.76;99576.00;2207712;40;20038;-77
2021/05/01 00:15:27;;;;;;;19.80;16.05;;;;;;;8.02;72.75;99573.50;2209290;40;20112;-77
2021/05/01 00:16:58;;;;;;;18.15;14.68;;;;;;;7.98;72.65;99572.94;2206318;40;20045;-77
2021/05/01 00:18:29;;;;;;;21.05;14.80;;;;;;;8.01;72.63;99575.31;2209408;40;20046;-77
2021/05/01 00:20:01;;;;;;;15.57;13.15;;;;;;;8.04;72.50;99576.84;2207393;40;20365;-77
2021/05/01 00:21:32;;;;;;;22.00;19.15;;;;;;;8.03;72.62;99575.19;2209963;40;20106;-77
2021/05/01 00:23:03;;;;;;;19.15;16.05;;;;;;;7.97;73.24;99568.59;2206074;40;20385;-77
2021/05/01 00:24:36;;;;;;;21.10;17.92;;;;;;;7.93;73.51;99568.03;2208983;40;20034;-77
2021/05/01 00:26:10;;;;;;;23.05;19.13;;;;;;;7.89;73.83;99585.25;2211240;40;20072;-77
2021/05/01 00:27:42;;;;;;;21.85;18.27;;;;;;;7.86;74.33;99580.19;2217922;40;20029;-77
2021/05/01 00:29:13;;;;;;;24.33;19.88;;;;;;;7.81;74.50;99585.09;2214728;40;20100;-77
2021/05/01 00:30:46;;;;;;;19.88;16.63;;;;;;;7.77;74.76;99586.34;2216291;40;20033;-77
2021/05/01 00:32:18;;;;;;;25.17;18.95;;;;;;;7.69;75.17;99581.75;2208372;40;20131;-76
2021/05/01 00:33:49;;;;;;;25.40;20.83;;;;;;;7.65;75.42;99580.31;2217302;40;20041;-78
2021/05/01 00:35:21;;;;;;;23.85;20.38;;;;;;;7.59;75.65;99580.88;2212739;40;20068;-77
2021/05/01 00:36:53;;;;;;;25.02;19.70;;;;;;;7.56;75.88;99581.97;2217640;40;20122;-77
2021/05/01 00:38:25;;;;;;;27.15;21.52;;;;;;;7.52;75.91;99580.56;2215196;40;20168;-77
2021/05/01 00:39:56;;;;;;;26.75;21.15;;;;;;;7.51;76.22;99578.06;2216646;40;20030;-77
2021/05/01 00:41:28;;;;;;;25.58;21.45;;;;;;;7.45;76.26;99571.47;2215614;40;20045;-77
2021/05/01 00:42:59;;;;;;;27.92;21.55;;;;;;;7.45;76.29;99582.09;2220690;40;20029;-76
2021/05/01 00:44:30;;;;;;;25.92;21.48;;;;;;;7.43;76.41;99587.53;2215784;40;20057;-77
2021/05/01 00:46:04;;;;;;;27.45;22.40;;;;;;;7.40;76.53;99589.63;2215612;40;20594;-76
2021/05/01 00:47:35;;;;;;;27.05;23.30;;;;;;;7.36;76.85;99598.88;2215563;40;20041;-77
2021/05/01 00:49:07;;;;;;;26.35;21.25;;;;;;;7.33;76.86;99603.47;2217034;40;20041;-77
2021/05/01 00:50:38;;;;;;;32.83;23.80;;;;;;;7.33;76.91;99587.53;2174038;40;20037;-79
2021/05/01 00:52:10;;;;;;;29.95;23.90;;;;;;;7.33;76.91;99589.31;2219569;40;20558;-78
2021/05/01 00:53:48;;;;;;;25.90;22.85;;;;;;;7.30;76.97;99589.63;2217380;40;20049;-78
2021/05/01 00:55:20;;;;;;;28.27;23.65;;;;;;;7.31;77.05;99586.81;2224479;40;20025;-77
2021/05/01 00:56:51;;;;;;;28.48;23.60;;;;;;;7.31;77.06;99583.31;2222721;40;20091;-78
2021/05/01 00:58:23;;;;;;;30.50;24.00;;;;;;;7.28;77.12;99589.72;2221909;40;20360;-78
2021/05/01 00:59:54;;;;;;;26.90;23.10;;;;;;;7.28;77.00;99586.25;2178188;40;20048;-78
2021/05/01 01:01:26;;;;;;;28.55;23.88;;;;;;;7.26;77.15;99586.38;2220207;40;20045;-78
2021/05/01 01:02:58;;;;;;;29.17;23.50;;;;;;;7.22;77.22;99584.97;2178492;40;20508;-78
2021/05/01 01:04:29;;;;;;;29.60;23.92;;;;;;;7.19;77.23;99582.56;2219987;40;20091;-77
2021/05/01 01:06:01;;;;;;;32.15;27.33;;;;;;;7.21;77.42;99588.59;2205816;40;20101;-76
2021/05/01 01:07:32;;;;;;;30.58;26.02;;;;;;;7.17;77.43;99595.16;2219538;40;20033;-77
2021/05/01 01:09:04;;;;;;;30.88;26.52;;;;;;;7.15;77.50;99595.28;2216764;40;20049;-78
2021/05/01 01:10:36;;;;;;;30.58;25.73;;;;;;;7.14;77.59;99590.09;2219285;40;20024;-78
2021/05/01 01:12:13;;;;;;;28.38;22.45;;;;;;;7.13;77.56;99586.59;2173919;40;20096;-78
2021/05/01 01:13:44;;;;;;;31.48;26.13;;;;;;;7.12;77.71;99587.59;2173627;40;20053;-78
2021/05/01 01:15:23;;;;;;;32.90;26.58;;;;;;;7.13;77.76;99586.59;2199129;40;20027;-77
2021/05/01 01:16:55;;;;;;;27.73;23.48;;;;;;;7.12;77.47;99589.41;2191378;40;20041;-78
2021/05/01 01:18:27;;;;;;;31.65;25.92;;;;;;;7.12;77.62;99595.56;2218127;40;20049;-78
2021/05/01 01:19:58;;;;;;;25.77;19.35;;;;;;;7.08;77.81;99578.19;2218982;40;20034;-78
2021/05/01 01:21:30;;;;;;;25.50;20.70;;;;;;;7.10;77.76;99588.69;2195291;40;20045;-78
2021/05/01 01:23:02;;;;;;;25.17;20.95;;;;;;;7.12;77.64;99592.06;2204415;40;20054;-78
2021/05/01 01:24:34;;;;;;;29.80;25.42;;;;;;;7.12;77.99;99589.41;2205041;40;20034;-78
2021/05/01 01:26:05;;;;;;;29.27;23.55;;;;;;;7.08;78.00;99588.00;2203420;40;20038;-78
2021/05/01 01:27:37;;;;;;;28.08;23.52;;;;;;;7.08;77.76;99586.16;2198606;40;20119;-78
2021/05/01 01:29:12;;;;;;;25.60;21.75;;;;;;;7.09;78.10;99584.34;2205141;40;20019;-78
2021/05/01 01:30:44;;;;;;;29.42;21.52;;;;;;;7.09;78.00;99568.38;2192749;40;20079;-79
2021/05/01 01:32:15;;;;;;;18.92;16.15;;;;;;;7.16;78.00;99566.91;2192836;40;20039;-78
2021/05/01 01:33:47;;;;;;;23.58;19.15;;;;;;;7.23;77.57;99564.50;2192194;40;20028;-79
2021/05/01 01:35:19;;;;;;;19.52;15.77;;;;;;;7.27;77.54;99561.47;2193996;40;20094;-79
2021/05/01 01:36:51;;;;;;;19.38;15.18;;;;;;;7.31;77.60;99567.38;2195469;40;20043;-79
2021/05/01 01:38:23;;;;;;;20.63;17.90;;;;;;;7.34;77.41;99565.28;2196538;40;20102;-78
2021/05/01 01:39:54;;;;;;;28.10;24.00;;;;;;;7.34;77.25;99567.94;2198084;40;20230;-78
2021/05/01 01:41:27;;;;;;;28.90;24.23;;;;;;;7.31;77.43;99578.00;2177204;40;20227;-78
2021/05/01 01:42:58;;;;;;;25.10;19.70;;;;;;;7.23;77.65;99570.69;2217561;40;20041;-77
2021/05/01 01:44:30;;;;;;;25.42;20.77;;;;;;;7.21;77.79;99583.28;2201076;40;20059;-79
2021/05/01 01:46:01;;;;;;;26.80;23.40;;;;;;;7.19;77.79;99587.88;2198904;40;20038;-79
2021/05/01 01:47:32;;;;;;;28.55;24.60;;;;;;;7.19;77.91;99582.56;2195068;40;20039;-79
2021/05/01 01:49:04;;;;;;;26.50;21.77;;;;;;;7.17;77.86;99573.91;2191996;40;20039;-79
2021/05/01 01:50:35;;;;;;;28.15;22.55;;;;;;;7.18;77.95;99576.41;2189664;40;20040;-79
2021/05/01 01:52:07;;;;;;;28.13;24.25;;;;;;;7.17;77.98;99580.03;2187393;40;20605;-79
2021/05/01 01:53:40;;;;;;;30.25;24.40;;;;;;;7.17;78.16;99576.56;2191715;40;20043;-78
2021/05/01 01:55:14;;;;;;;26.50;21.60;;;;;;;7.17;78.05;99560.59;2180745;41;20036;-77
2021/05/01 01:56:45;;;;;;;28.65;23.17;;;;;;;7.16;78.07;99570.38;2189160;40;20050;-78
2021/05/01 01:58:16;;;;;;;26.15;22.17;;;;;;;7.16;78.19;99574.88;2206047;40;20548;-78
2021/05/01 01:59:48;;;;;;;28.95;23.45;;;;;;;7.12;78.36;99573.44;2204864;40;20038;-79
2021/05/01 02:01:19;;;;;;;27.38;23.05;;;;;;;7.08;78.31;99564.91;2198650;40;20047;-78
2021/05/01 02:02:50;;;;;;;27.05;22.60;;;;;;;7.07;78.50;99568.53;2199131;40;20039;-79
2021/05/01 02:04:22;;;;;;;29.63;23.30;;;;;;;7.08;78.62;99562.25;2198671;40;20031;-79
2021/05/01 02:05:53;;;;;;;30.98;24.80;;;;;;;7.07;78.51;99555.25;2195829;40;20098;-79
2021/05/01 02:07:24;;;;;;;29.75;24.02;;;;;;;7.07;78.41;99562.38;2199167;40;20062;-79
2021/05/01 02:08:56;;;;;;;28.42;22.83;;;;;;;7.03;78.67;99559.16;2186610;40;20610;-79
2021/05/01 02:10:28;;;;;;;30.42;24.58;;;;;;;7.01;78.99;99569.91;2187770;40;20032;-78
2021/05/01 02:11:59;;;;;;;29.48;24.73;;;;;;;6.99;78.99;99573.69;2126839;41;20050;-78
2021/05/01 02:13:30;;;;;;;29.83;24.90;;;;;;;6.97;79.23;99565.84;2150944;41;20126;-79
2021/05/01 02:15:01;;;;;;;30.20;26.30;;;;;;;6.95;79.17;99567.78;2150781;41;20042;-79
2021/05/01 02:16:33;;;;;;;26.35;22.73;;;;;;;6.96;79.04;99563.31;2149517;41;20047;-79
2021/05/01 02:18:05;;;;;;;31.42;24.95;;;;;;;6.97;78.99;99560.53;2148300;41;20542;-78
2021/05/01 02:19:36;;;;;;;27.08;23.35;;;;;;;6.98;79.21;99562.22;2143106;41;20051;-78
2021/05/01 02:21:08;;;;;;;28.85;24.23;;;;;;;7.02;78.93;99571.59;2133476;41;20040;-78
2021/05/01 02:22:39;;;;;;;28.38;22.83;;;;;;;7.05;79.08;99559.00;2135829;41;20065;-78
2021/05/01 02:24:11;;;;;;;24.45;20.08;;;;;;;7.05;78.64;99556.34;2138892;41;20601;-79
2021/05/01 02:25:42;;;;;;;20.73;17.00;;;;;;;7.10;78.72;99559.44;2134806;41;20688;-77
2021/05/01 02:27:13;;;;;;;24.63;18.70;;;;;;;7.14;78.72;99555.53;2153226;41;20045;-77
2021/05/01 02:28:44;;;;;;;24.92;20.95;;;;;;;7.20;78.51;99554.16;2171370;41;20037;-77
2021/05/01 02:30:18;;;;;;;21.30;15.57;;;;;;;7.25;78.34;99554.59;2166620;41;20045;-77
2021/05/01 02:31:49;;;;;;;23.88;19.83;;;;;;;7.30;78.10;99557.72;2175951;40;20064;-76
2021/05/01 02:33:20;;;;;;;22.10;18.10;;;;;;;7.31;77.95;99559.38;2202188;40;20039;-77
2021/05/01 02:34:51;;;;;;;18.77;15.43;;;;;;;7.37;77.63;99558.84;2206078;40;20049;-76
2021/05/01 02:36:23;;;;;;;26.50;22.20;;;;;;;7.33;77.59;99550.28;2219666;40;20053;-77
2021/05/01 02:37:54;;;;;;;27.70;23.20;;;;;;;7.28;77.60;99547.19;2218207;40;20041;-77
2021/05/01 02:39:26;;;;;;;29.20;23.20;;;;;;;7.20;77.67;99554.16;2220272;40;20029;-77
2021/05/01 02:40:58;;;;;;;28.20;22.83;;;;;;;7.11;78.11;99548.69;2216014;40;20057;-76
2021/05/01 02:42:29;;;;;;;27.42;22.20;;;;;;;7.08;78.28;99561.41;2219146;40;20053;-78
2021/05/01 02:44:00;;;;;;;32.88;26.63;;;;;;;7.12;78.21;99555.69;2221806;40;20044;-77
2021/05/01 02:45:31;;;;;;;28.85;24.23;;;;;;;7.09;78.16;99549.78;2216801;40;20402;-77
2021/05/01 02:47:03;;;;;;;30.08;25.73;;;;;;;7.08;78.29;99554.25;2215733;40;20045;-77
2021/05/01 02:48:34;;;;;;;32.90;27.13;;;;;;;7.09;78.13;99555.94;2217951;40;20072;-77
2021/05/01 02:50:08;;;;;;;31.23;23.92;;;;;;;7.05;78.10;99545.72;2215468;40;20049;-77
2021/05/01 02:51:39;;;;;;;26.67;22.52;;;;;;;7.02;78.46;99541.53;2217159;40;20512;-78
2021/05/01 02:53:10;;;;;;;30.45;24.30;;;;;;;6.98;78.43;99540.97;2181395;40;20327;-78
2021/05/01 02:54:42;;;;;;;30.25;24.50;;;;;;;6.98;78.50;99546.28;2212276;40;20037;-78
2021/05/01 02:56:14;;;;;;;27.00;22.27;;;;;;;6.97;78.63;99549.91;2163024;40;20041;-78
2021/05/01 02:57:45;;;;;;;23.75;19.65;;;;;;;6.98;78.75;99540.09;2216908;40;20062;-77
2021/05/01 02:59:17;;;;;;;23.60;18.90;;;;;;;6.97;78.57;99539.28;2214237;40;20081;-78
2021/05/01 03:00:48;;;;;;;23.95;19.70;;;;;;;6.98;78.55;99538.28;2215564;40;20030;-77
2021/05/01 03:02:19;;;;;;;26.65;21.23;;;;;;;7.01;78.53;99529.22;2214227;40;20146;-78
2021/05/01 03:03:50;;;;;;;25.90;21.77;;;;;;;7.03;78.61;99530.75;2217917;40;20425;-77
2021/05/01 03:05:23;;;;;;;28.38;24.10;;;;;;;7.01;78.38;99531.88;2214497;40;20045;-78
2021/05/01 03:06:55;;;;;;;30.90;25.17;;;;;;;6.93;78.44;99527.22;2217839;40;20485;-78
2021/05/01 03:08:26;;;;;;;32.55;22.95;;;;;;;6.83;78.45;99526.31;2219208;40;20041;-78
2021/05/01 03:09:58;;;;;;;28.92;24.58;;;;;;;6.71;78.63;99520.28;2222287;40;20030;-79
2021/05/01 03:11:30;;;;;;;32.22;25.83;;;;;;;6.66;78.82;99510.03;2220465;40;20029;-77
2021/05/01 03:13:01;;;;;;;31.45;26.50;;;;;;;6.66;78.73;99514.53;2218439;40;20056;-77
2021/05/01 03:14:33;;;;;;;28.77;23.73;;;;;;;6.67;78.84;99511.72;2214567;40;20052;-77
2021/05/01 03:16:05;;;;;;;29.95;23.70;;;;;;;6.67;78.89;99510.88;2216054;40;20044;-77
2021/05/01 03:17:37;;;;;;;32.70;26.23;;;;;;;6.65;78.90;99507.53;2214677;40;20057;-77
2021/05/01 03:19:08;;;;;;;34.30;26.73;;;;;;;6.64;78.94;99506.66;2215242;40;20065;-76
2021/05/01 03:20:39;;;;;;;30.13;25.27;;;;;;;6.61;78.95;99501.66;2214348;40;20452;-77
2021/05/01 03:22:10;;;;;;;28.13;23.38;;;;;;;6.59;79.08;99506.25;2216043;40;20033;-77
2021/05/01 03:23:41;;;;;;;28.50;22.80;;;;;;;6.58;78.90;99501.91;2215213;40;20045;-77
2021/05/01 03:25:15;;;;;;;33.95;26.38;;;;;;;6.62;79.07;99507.78;2216027;40;20318;-77
2021/05/01 03:26:46;;;;;;;33.72;26.63;;;;;;;6.61;79.12;99503.44;2198007;40;20034;-78
2021/05/01 03:28:18;;;;;;;29.33;24.27;;;;;;;6.58;79.08;99509.00;2209612;40;20112;-77
2021/05/01 03:29:49;;;;;;;27.38;21.45;;;;;;;6.52;79.10;99508.56;2208261;40;20038;-77
2021/05/01 03:31:20;;;;;;;32.10;26.88;;;;;;;6.52;79.15;99505.06;2202391;40;20100;-77
2021/05/01 03:32:52;;;;;;;34.17;26.45;;;;;;;6.52;79.26;99502.41;2207173;40;20050;-77
2021/05/01 03:34:24;;;;;;;31.75;26.27;;;;;;;6.52;79.18;99505.06;2214237;40;20115;-77
2021/05/01 03:35:56;;;;;;;32.50;25.20;;;;;;;6.52;79.31;99502.41;2208635;40;20034;-78
2021/05/01 03:37:28;;;;;;;33.67;23.45;;;;;;;6.53;79.47;99493.47;2209775;40;20030;-77
2021/05/01 03:38:59;;;;;;;30.55;23.30;;;;;;;6.57;79.29;99489.59;2193173;40;20054;-77
2021/05/01 03:40:31;;;;;;;27.88;21.08;;;;;;;6.66;79.26;99496.75;2203365;40;20045;-77
2021/05/01 03:42:03;;;;;;;32.05;26.27;;;;;;;6.72;78.96;99488.25;2197342;40;20088;-77
2021/05/01 03:43:35;;;;;;;31.98;26.33;;;;;;;6.69;78.63;99493.00;2195756;40;20112;-78
2021/05/01 03:45:07;;;;;;;38.30;30.20;;;;;;;6.61;78.76;99491.03;2210213;40;20045;-77
2021/05/01 03:46:38;;;;;;;31.00;25.00;;;;;;;6.53;79.02;99488.16;2211450;40;20041;-77
2021/05/01 03:48:11;;;;;;;28.10;23.23;;;;;;;6.51;79.16;99495.44;2203389;40;20034;-77
2021/05/01 03:49:41;;;;;;;32.72;26.20;;;;;;;6.48;79.33;99507.16;2203870;40;20100;-78
2021/05/01 03:51:13;;;;;;;37.67;27.60;;;;;;;6.46;79.45;99492.31;2216699;40;20437;-78
2021/05/01 03:52:45;;;;;;;32.47;27.33;;;;;;;6.40;79.65;99491.91;2192153;40;20633;-77
2021/05/01 03:54:17;;;;;;;37.03;28.67;;;;;;;6.45;79.51;99501.25;2208558;40;20041;-78
2021/05/01 03:55:49;;;;;;;34.75;28.48;;;;;;;6.44;79.69;99500.44;2207138;40;20456;-77
2021/05/01 03:57:20;;;;;;;30.67;25.92;;;;;;;6.45;79.75;99512.75;2210495;40;20038;-78
2021/05/01 03:58:52;;;;;;;31.27;24.77;;;;;;;6.44;79.61;99508.41;2205886;40;20524;-78
2021/05/01 04:00:24;;;;;;;31.05;25.60;;;;;;;6.42;79.72;99520.13;2211110;40;20042;-77
2021/05/01 04:01:55;;;;;;;31.33;26.17;;;;;;;6.38;79.77;99528.34;2196703;40;20117;-78
2021/05/01 04:03:27;;;;;;;34.85;28.15;;;;;;;6.34;79.88;99520.78;2210294;40;20034;-77
2021/05/01 04:04:58;;;;;;;32.30;24.92;;;;;;;6.28;80.03;99522.13;2190638;40;20096;-78
2021/05/01 04:06:30;;;;;;;33.80;27.42;;;;;;;6.27;80.02;99525.75;2208322;40;20046;-77
2021/05/01 04:08:01;;;;;;;30.40;24.65;;;;;;;6.21;80.09;99521.81;2190705;40;20054;-77
2021/05/01 04:09:32;;;;;;;37.05;28.83;;;;;;;6.20;80.33;99516.63;2198637;40;20035;-77
2021/05/01 04:11:05;;;;;;;34.95;26.35;;;;;;;6.19;80.44;99512.28;2199048;40;20120;-77
2021/05/01 04:12:36;;;;;;;29.33;23.63;;;;;;;6.20;80.15;99521.94;2209245;40;20054;-78
2021/05/01 04:14:08;;;;;;;32.50;26.02;;;;;;;6.20;80.51;99532.56;2196476;40;20042;-78
2021/05/01 04:15:39;;;;;;;34.97;28.77;;;;;;;6.21;80.35;99527.13;2198336;40;20047;-77
2021/05/01 04:17:10;;;;;;;33.63;27.48;;;;;;;6.19;80.53;99529.03;2190382;40;20047;-78
2021/05/01 04:18:43;;;;;;;34.00;27.60;;;;;;;6.20;80.70;99530.72;2196416;40;20034;-77
2021/05/01 04:20:14;;;;;;;37.33;26.40;;;;;;;6.21;80.44;99536.91;2192087;40;20034;-78
2021/05/01 04:21:47;;;;;;;32.05;25.02;;;;;;;6.24;80.63;99531.31;2214526;40;20095;-78
2021/05/01 04:23:18;;;;;;;39.13;30.42;;;;;;;6.27;80.45;99546.16;2213760;40;20030;-77
2021/05/01 04:24:50;;;;;;;31.05;23.38;;;;;;;6.27;80.42;99546.16;2210617;40;20019;-78
2021/05/01 04:26:22;;;;;;;38.63;29.73;;;;;;;6.24;80.30;99534.81;2206913;40;20046;-77
2021/05/01 04:27:53;;;;;;;35.47;28.45;;;;;;;6.23;80.27;99540.28;2214195;40;20080;-77
2021/05/01 04:29:25;;;;;;;38.80;29.40;;;;;;;6.20;80.37;99535.22;2215746;40;20038;-77
2021/05/01 04:30:59;;;;;;;28.55;21.63;;;;;;;6.24;80.64;99526.00;2217240;40;20033;-77
2021/05/01 04:32:30;;;;;;;36.72;28.25;;;;;;;6.27;80.36;99522.28;2213032;40;20049;-77
2021/05/01 04:34:02;;;;;;;37.45;30.20;;;;;;;6.25;80.22;99527.69;2226643;40;20033;-78
2021/05/01 04:35:33;;;;;;;34.67;27.30;;;;;;;6.21;80.50;99542.22;2203706;40;20027;-78
2021/05/01 04:37:04;;;;;;;43.47;29.67;;;;;;;6.21;80.42;99539.56;2218752;40;20025;-78
2021/05/01 04:38:36;;;;;;;34.90;26.55;;;;;;;6.19;80.42;99536.19;2206594;40;20042;-77
2021/05/01 04:40:08;;;;;;;38.20;29.27;;;;;;;6.19;80.34;99544.97;2216219;40;20024;-77
2021/05/01 04:41:41;;;;;;;40.17;30.40;;;;;;;6.19;80.38;99541.50;2214849;40;20049;-76
2021/05/01 04:43:13;;;;;;;33.42;25.90;;;;;;;6.18;80.42;99542.47;2211512;40;20038;-78
2021/05/01 04:44:44;;;;;;;33.20;24.80;;;;;;;6.22;80.30;99539.41;2183068;40;20084;-78
2021/05/01 04:46:18;;;;;;;26.98;21.83;;;;;;;6.31;80.34;99535.16;2210780;40;20144;-78
2021/05/01 04:47:52;;;;;;;28.23;22.08;;;;;;;6.40;80.24;99531.72;2210101;40;20038;-78
2021/05/01 04:49:24;;;;;;;27.65;21.77;;;;;;;6.47;80.21;99525.88;2216374;40;20030;-79
2021/05/01 04:50:55;;;;;;;31.15;23.42;;;;;;;6.55;79.56;99524.25;2216627;40;20048;-77
2021/05/01 04:52:28;;;;;;;25.27;20.95;;;;;;;6.61;79.43;99522.03;2219221;40;20033;-78
2021/05/01 04:53:59;;;;;;;33.78;27.77;;;;;;;6.64;79.37;99519.13;2176146;40;20565;-78
2021/05/01 04:55:31;;;;;;;36.85;28.33;;;;;;;6.59;79.23;99521.31;2211425;40;20042;-78
2021/05/01 04:57:04;;;;;;;37.33;29.73;;;;;;;6.53;79.21;99518.22;2175218;40;20124;-78
2021/05/01 04:58:35;;;;;;;32.95;26.80;;;;;;;6.51;79.57;99529.97;2208600;40;20189;-77
2021/05/01 05:00:08;;;;;;;35.78;29.40;;;;;;;6.50;79.53;99534.41;2194341;40;20041;-78
2021/05/01 05:01:40;;;;;;;33.05;26.25;;;;;;;6.51;79.64;99522.00;2204240;40;20049;-78
2021/05/01 05:03:11;;;;;;;29.67;24.38;;;;;;;6.51;79.74;99524.66;2203882;40;20054;-79
2021/05/01 05:04:43;;;;;;;33.83;27.80;;;;;;;6.50;79.58;99515.81;2212797;40;20038;-77
2021/05/01 05:06:14;;;;;;;34.30;28.52;;;;;;;6.50;79.81;99518.47;2215877;40;20048;-78
2021/05/01 05:07:45;;;;;;;39.55;30.80;;;;;;;6.55;79.67;99507.47;2214551;40;20033;-77
2021/05/01 05:09:17;;;;;;;33.55;26.27;;;;;;;6.57;79.57;99518.81;2216532;40;20034;-77
2021/05/01 05:10:48;;;;;;;35.50;28.88;;;;;;;6.58;79.40;99501.91;2214928;40;20593;-78
2021/05/01 05:12:20;;;;;;;32.72;26.25;;;;;;;6.62;79.54;99513.09;2211222;40;20050;-77
2021/05/01 05:13:52;;;;;;;39.75;31.50;;;;;;;6.67;79.27;99506.41;2209406;40;20071;-77
2021/05/01 05:15:23;;;;;;;39.83;32.00;;;;;;;6.68;79.35;99508.09;2205351;40;20041;-78
2021/05/01 05:16:55;;;;;;;35.08;28.55;;;;;;;6.68;79.20;99510.75;2173329;40;20362;-78
2021/05/01 05:18:27;;;;;;;34.22;27.92;;;;;;;6.72;79.35;99509.50;2199137;40;20033;-78
2021/05/01 05:19:59;;;;;;;32.67;26.65;;;;;;;6.77;79.12;99508.28;2213179;40;20047;-77
2021/05/01 05:21:31;;;;;;;35.22;28.30;;;;;;;6.78;78.96;99521.41;2214222;40;20390;-78
2021/05/01 05:23:02;;;;;;;34.58;28.30;;;;;;;6.76;79.12;99518.03;2215588;40;20065;-77
2021/05/01 05:24:35;;;;;;;31.70;26.60;;;;;;;6.74;79.19;99520.00;2216923;40;20078;-78
2021/05/01 05:26:07;;;;;;;34.33;26.85;;;;;;;6.70;79.29;99510.63;2215735;40;20045;-78
2021/05/01 05:27:39;;;;;;;34.08;26.75;;;;;;;6.68;79.45;99516.06;2218385;40;20073;-77
2021/05/01 05:29:12;;;;;;;35.15;28.83;;;;;;;6.69;79.43;99519.56;2217196;40;20053;-78
2021/05/01 05:30:43;;;;;;;33.10;26.85;;;;;;;6.66;79.58;99525.16;2210908;40;20038;-77
2021/05/01 05:32:15;;;;;;;30.02;23.80;;;;;;;6.68;79.72;99524.03;2213050;40;20674;-78
2021/05/01 05:33:46;;;;;;;36.78;29.60;;;;;;;6.70;79.55;99526.56;2213187;40;20030;-78
2021/05/01 05:35:18;;;;;;;32.53;26.92;;;;;;;6.68;79.61;99529.34;2197142;40;20174;-78
2021/05/01 05:36:49;;;;;;;34.30;26.40;;;;;;;6.64;79.78;99533.22;2216188;40;20567;-78
2021/05/01 05:38:21;;;;;;;36.28;30.08;;;;;;;6.62;79.83;99529.03;2203108;40;20038;-78
2021/05/01 05:39:53;;;;;;;34.58;28.63;;;;;;;6.62;79.83;99523.72;2201105;40;20046;-78
2021/05/01 05:41:24;;;;;;;37.08;29.45;;;;;;;6.61;79.86;99530.00;2215172;40;20190;-78
2021/05/01 05:42:57;;;;;;;35.03;28.25;;;;;;;6.64;79.96;99524.44;2216863;40;20033;-77
2021/05/01 05:44:28;;;;;;;34.28;27.15;;;;;;;6.67;79.96;99540.94;2194012;40;20066;-77
2021/05/01 05:46:12;;;;;;;39.60;31.10;;;;;;;6.70;79.73;99534.53;2209097;40;20053;-77
2021/05/01 05:47:43;;;;;;;36.25;29.65;;;;;;;6.72;79.87;99536.06;2212281;40;20041;-78
2021/05/01 05:49:15;;;;;;;34.88;28.50;;;;;;;6.78;79.88;99528.56;2217204;40;20030;-77
2021/05/01 05:50:46;;;;;;;37.55;29.25;;;;;;;6.78;79.67;99529.38;2215577;40;20155;-77
2021/05/01 05:52:19;;;;;;;36.70;29.67;;;;;;;6.80;79.63;99537.25;2216806;40;20036;-77
2021/05/01 05:53:50;;;;;;;37.17;30.05;;;;;;;6.82;79.70;99529.97;2215366;40;20050;-77
2021/05/01 05:55:22;;;;;;;38.95;29.95;;;;;;;6.82;79.80;99530.81;2217304;40;20061;-78
2021/05/01 05:56:53;;;;;;;37.42;29.60;;;;;;;6.85;79.60;99517.25;2214617;40;20091;-77
2021/05/01 05:58:26;;;;;;;34.80;28.73;;;;;;;6.87;79.55;99512.63;2216449;40;20042;-77
2021/05/01 05:59:57;;;;;;;31.92;26.63;;;;;;;6.89;79.58;99511.66;2214583;40;20049;-77
2021/05/01 06:01:32;;;;;;;34.70;29.23;;;;;;;6.93;79.53;99505.94;2216177;40;20307;-77
2021/05/01 06:03:04;;;;;;;41.22;32.83;;;;;;;6.98;79.41;99509.06;2209300;40;20330;-77
2021/05/01 06:04:45;;;;;;;35.92;29.73;;;;;;;7.03;79.27;99506.00;2207899;40;20041;-78
2021/05/01 06:06:23;;;;;;;38.20;29.20;;;;;;;7.10;78.96;99506.28;2210906;40;20045;-77
2021/05/01 06:07:59;;;;;;;34.13;27.70;;;;;;;7.18;78.90;99506.44;2209294;40;20446;-78
2021/05/01 06:09:31;;;;;;;33.30;25.50;;;;;;;7.27;78.79;99516.28;2216542;40;20049;-78
2021/05/01 06:11:03;;;;;;;37.35;29.80;;;;;;;7.34;78.42;99513.91;2187407;40;20046;-78
2021/05/01 06:12:35;;;;;;;39.35;31.33;;;;;;;7.37;77.99;99508.31;2213846;40;20049;-77
2021/05/01 06:14:11;;;;;;;34.97;29.15;;;;;;;7.44;78.03;99513.94;2214604;40;20049;-77
2021/05/01 06:15:44;;;;;;;33.55;27.45;;;;;;;7.44;77.84;99520.06;2216265;40;20041;-77
2021/05/01 06:17:21;;;;;;;39.50;32.05;;;;;;;7.47;77.73;99508.31;2215847;40;20049;-78
2021/05/01 06:18:53;;;;;;;43.25;32.55;;;;;;;7.48;77.72;99510.00;2213745;40;20033;-77
2021/05/01 06:20:26;;;;;;;36.30;29.10;;;;;;;7.53;77.75;99498.94;2213659;40;20321;-78
2021/05/01 06:21:59;;;;;;;39.55;29.02;;;;;;;7.59;77.46;99493.91;2217181;40;20038;-78
2021/05/01 06:23:31;;;;;;;29.80;24.70;;;;;;;7.65;77.37;99482.69;2214919;40;20046;-78
2021/05/01 06:25:04;;;;;;;31.45;25.20;;;;;;;7.79;77.29;99480.63;2217960;40;20113;-77
2021/05/01 06:26:40;;;;;;;32.08;26.38;;;;;;;7.93;76.73;99479.34;2212163;40;20060;-78
2021/05/01 06:28:12;;;;;;;33.65;25.42;;;;;;;8.01;76.43;99481.31;2216990;40;20414;-77
2021/05/01 06:29:45;;;;;;;33.30;25.25;;;;;;;8.06;76.09;99479.03;2215749;40;20044;-77
2021/05/01 06:31:18;;;;;;;30.30;23.55;;;;;;;8.16;75.69;99493.19;2220505;40;20018;-78
2021/05/01 06:32:50;;;;;;;30.13;23.10;;;;;;;8.23;75.58;99502.28;2219082;40;20046;-78
2021/05/01 06:34:22;;;;;;;34.83;28.33;;;;;;;8.30;75.48;99505.22;2219154;40;20028;-78
2021/05/01 06:35:53;;;;;;;36.63;30.38;;;;;;;8.32;75.15;99497.06;2216188;40;20459;-77
2021/05/01 06:37:26;;;;;;;41.08;32.08;;;;;;;8.31;75.18;99496.25;2222143;40;20052;-77
2021/05/01 06:39:01;;;;;;;37.63;28.83;;;;;;;8.28;74.84;99484.06;2211884;40;20384;-77
2021/05/01 06:40:37;;;;;;;29.05;23.10;;;;;;;8.35;74.79;99483.47;2216530;40;20041;-78
2021/05/01 06:42:12;;;;;;;34.22;27.05;;;;;;;8.49;74.70;99503.50;2216655;40;20038;-78
2021/05/01 06:44:01;;;;;;;34.42;26.92;;;;;;;8.58;74.34;99499.97;2209062;40;20034;-77
2021/05/01 06:45:35;;;;;;;31.38;24.83;;;;;;;8.66;73.90;99494.75;2214489;40;20033;-77
2021/05/01 06:47:09;;;;;;;28.90;24.08;;;;;;;8.73;73.65;99501.22;2214697;40;20060;-77
2021/05/01 06:48:41;;;;;;;34.53;26.90;;;;;;;8.78;73.40;99489.25;2216134;40;20254;-78
2021/05/01 06:50:13;;;;;;;34.83;28.67;;;;;;;8.82;73.51;99488.00;2214953;40;20375;-77
2021/05/01 06:51:45;;;;;;;32.17;24.92;;;;;;;8.83;73.13;99495.81;2216207;40;20025;-77
2021/05/01 06:53:25;;;;;;;30.50;23.20;;;;;;;8.86;73.26;99506.19;2188330;40;20063;-77
2021/05/01 06:55:01;;;;;;;28.73;24.05;;;;;;;8.91;73.09;99511.09;2200482;40;20054;-78
2021/05/01 06:56:34;;;;;;;31.00;25.33;;;;;;;8.89;72.72;99515.72;2200096;40;20611;-77
2021/05/01 06:58:06;;;;;;;31.58;24.45;;;;;;;8.87;72.73;99517.69;2215183;40;20038;-77
2021/05/01 06:59:38;;;;;;;34.08;26.55;;;;;;;8.80;72.72;99520.09;2213494;40;20554;-77
2021/05/01 07:01:12;;;;;;;36.42;30.05;;;;;;;8.83;72.89;99522.47;2207042;40;20030;-77
2021/05/01 07:02:45;;;;;;;35.80;28.50;;;;;;;8.79;72.70;99515.75;2214899;40;20045;-77
2021/05/01 07:04:17;;;;;;;34.35;27.58;;;;;;;8.78;72.67;99514.09;2216113;40;20314;-77
2021/05/01 07:05:48;;;;;;;30.08;24.15;;;;;;;8.83;72.69;99511.81;2193365;40;20041;-77
2021/05/01 07:07:22;;;;;;;37.88;31.05;;;;;;;8.88;72.37;99498.88;2214349;40;20123;-77